• Join FlightAware (Why Join?)
  • Login
  • US Flag 
03:51PM EDT


 

Airport Tracker/Info


-or-


 

Live Flight TrackerFlight Track Log ✈ N143DE ✈ 01-May-2013 ✈ KMSY - KRYY

Flight Track Log - Related Links

Times and Time Zones

All times are in EDT time to prevent confusion due to time zone crossing. See the N143DE flight status page for this flight to view local times or setup timezone preferences in your user account.

Time Position Orientation Groundspeed Altitude Reporting Facility
EDT Latitude Longitude Course Direction KTS MPH feet Rate Location/Type
11:03AM 29.9864 -90.2536 181° South 127 146 400  Level Houston Center
11:04AM 29.9461 -90.2542 176° South 151 174 2,700 2,280 Climbing Houston Center
11:05AM 29.9167 -90.2331 148° Southeast 167 192 5,100 2,220 Climbing Houston Center
11:06AM 29.9025 -90.1872 110° East 158 182 7,300 2,220 Climbing Houston Center
11:08AM 29.9103 -90.1353 80° East 170 196 9,700 2,400 Climbing Houston Center
11:09AM 29.9278 -90.0769 71° East 164 189 12,300 1,980 Climbing Houston Center
11:10AM 29.9628 -90.0450 38° Northeast 176 203 13,800 1,200 Climbing Houston Center
11:11AM 30.0167 -90.0308 13° North 192 221 14,900 600 Climbing Houston Center
11:12AM 30.0808 -90.0128 14° North 230 265 15,100  Climbing Houston Center
11:13AM 30.1417 -89.9947 14° North 229 264 15,000 420 Descending Houston Center
11:14AM 30.1992 -89.9764 15° North 217 250 16,000 1,260 Climbing Houston Center
11:15AM 30.2536 -89.9175 43° Northeast 222 255 17,700 1,320 Climbing Houston Center
11:16AM 30.3006 -89.8714 40° Northeast 220 253 18,800 1,020 Climbing Houston Center
11:17AM 30.3508 -89.8233 40° Northeast 226 260 19,900 960 Climbing Houston Center
11:18AM 30.4025 -89.7736 40° Northeast 229 264 20,800 840 Climbing Houston Center
11:19AM 30.4519 -89.7250 40° Northeast 229 264 21,700 720 Climbing Houston Center
11:20AM 30.5000 -89.6742 42° Northeast 234 269 22,400 720 Climbing Houston Center
11:21AM 30.5397 -89.6125 53° Northeast 238 274 23,200 840 Climbing Houston Center
11:22AM 30.5678 -89.5486 63° Northeast 224 258 24,200 780 Climbing Houston Center
11:23AM 30.6044 -89.4889 54° Northeast 226 260 24,900 420 Climbing Houston Center
11:24AM 30.6447 -89.4100 59° Northeast 240 276 25,100 60 Climbing Houston Center
11:25AM 30.6806 -89.3383 60° Northeast 254 292 25,100  Level Houston Center
11:26AM 30.7206 -89.2653 57° Northeast 266 306 25,100  Level Houston Center
11:27AM 30.7592 -89.1894 59° Northeast 272 313 25,100  Level Houston Center
11:28AM 30.7981 -89.1158 58° Northeast 268 308 25,100 -60 Level Houston Center
11:29AM 30.8367 -89.0406 59° Northeast 271 312 25,000  Descending Houston Center
11:30AM 30.8839 -88.9503 59° Northeast 273 314 25,100  Climbing Houston Center
11:31AM 30.9225 -88.8769 58° Northeast 271 312 25,100  Level Houston Center
11:32AM 30.9622 -88.8025 58° Northeast 271 312 25,100  Level Houston Center
11:33AM 31.0017 -88.7272 59° Northeast 272 313 25,100  Level Houston Center
11:34AM 31.0408 -88.6531 58° Northeast 269 310 25,100  Level Houston Center
11:35AM 31.0803 -88.5775 59° Northeast 270 311 25,100  Level Houston Center
11:36AM 31.1244 -88.4881 60° Northeast 267 307 25,100  Level Houston Center
11:38AM 31.1647 -88.4139 58° Northeast 269 310 25,100  Level Houston Center
11:39AM 31.2033 -88.3408 58° Northeast 266 306 25,100  Level Houston Center
11:39AM 31.2242 -88.3072 54° Northeast 252 290 25,100  Level Atlanta Center
11:40AM 31.2622 -88.2339 59° Northeast 258 297 25,100  Level Atlanta Center
11:41AM 31.3000 -88.1628 58° Northeast 258 297 25,100  Level Atlanta Center
11:42AM 31.3172 -88.1219 64° Northeast 255 293 25,100  Level Houston Center
11:43AM 31.3547 -88.0500 59° Northeast 257 296 25,100  Level Houston Center
11:44AM 31.3986 -87.9617 60° Northeast 262 302 25,100  Level Houston Center
11:44AM 31.4094 -87.9461 51° Northeast 258 297 25,100  Level Atlanta Center
11:45AM 31.4472 -87.8750 58° Northeast 253 291 25,100  Level Atlanta Center
11:46AM 31.4847 -87.8033 58° Northeast 253 291 25,100  Level Atlanta Center
11:47AM 31.5225 -87.7319 58° Northeast 253 291 25,100  Level Atlanta Center
11:48AM 31.5581 -87.6578 61° Northeast 253 291 25,100  Level Atlanta Center
11:49AM 31.5956 -87.5861 58° Northeast 253 291 25,100  Level Atlanta Center
11:50AM 31.6331 -87.5144 58° Northeast 253 291 25,100  Level Atlanta Center
11:51AM 31.6683 -87.4428 60° Northeast 253 291 25,100  Level Atlanta Center
11:52AM 31.7039 -87.3708 60° Northeast 253 291 25,100  Level Atlanta Center
11:53AM 31.7328 -87.3011 64° Northeast 253 291 25,100  Level Atlanta Center
11:54AM 31.7703 -87.2292 58° Northeast 253 291 25,100  Level Atlanta Center
11:55AM 31.8075 -87.1572 59° Northeast 253 291 25,100  Level Atlanta Center
11:56AM 31.8425 -87.0875 59° Northeast 253 291 25,100  Level Atlanta Center
11:57AM 31.8778 -87.0128 61° Northeast 248 285 25,100 -360 Level Atlanta Center
11:58AM 31.9150 -86.9358 60° Northeast 248 285 24,400 -540 Descending Atlanta Center
11:59AM 31.9544 -86.8611 58° Northeast 259 298 24,100 -240 Descending Atlanta Center
12:00PM 31.9917 -86.7839 60° Northeast 264 304 24,000 -600 Descending Atlanta Center
12:01PM 32.0372 -86.6994 58° Northeast 264 304 23,000 -960 Descending Atlanta Center
12:02PM 32.0764 -86.6272 57° Northeast 264 304 22,100 -900 Descending Atlanta Center
12:03PM 32.1133 -86.5547 59° Northeast 264 304 21,300 -900 Descending Atlanta Center
12:04PM 32.1461 -86.4819 62° Northeast 253 291 20,300 -900 Descending Atlanta Center
12:05PM 32.1808 -86.4119 60° Northeast 247 284 19,500 -840 Descending Atlanta Center
12:06PM 32.2072 -86.3464 65° Northeast 247 284 18,700 -900 Descending Atlanta Center
12:07PM 32.2481 -86.2761 55° Northeast 237 273 17,800 -840 Descending Atlanta Center
12:08PM 32.2972 -86.2183 45° Northeast 232 267 17,100 -840 Descending Atlanta Center
12:09PM 32.3419 -86.1606 47° Northeast 232 267 16,200 -780 Descending Atlanta Center
12:10PM 32.3869 -86.1050 46° Northeast 232 267 15,600 -780 Descending Atlanta Center
12:11PM 32.4231 -86.0517 51° Northeast 227 261 14,700 -1,200 Descending Atlanta Center
12:12PM 32.4594 -86.0008 50° Northeast 212 244 13,300 -1,500 Descending Atlanta Center
12:13PM 32.4958 -85.9500 50° Northeast 207 238 11,700 -1,200 Descending Atlanta Center
12:14PM 32.5361 -85.8992 47° Northeast 202 232 10,900 -420 Descending Atlanta Center
12:15PM 32.5744 -85.8456 50° Northeast 207 238 10,900  Level Atlanta Center
12:16PM 32.6172 -85.7847 50° Northeast 221 254 10,900  Level Atlanta Center
12:17PM 32.6661 -85.7242 46° Northeast 238 274 10,900 -300 Level Atlanta Center
12:18PM 32.7150 -85.6583 49° Northeast 248 285 10,300 -540 Descending Atlanta Center
12:19PM 32.7639 -85.5925 49° Northeast 259 298 9,900 -180 Descending Atlanta Center
12:20PM 32.8106 -85.5267 50° Northeast 259 298 10,000  Climbing Atlanta Center
12:21PM 32.8572 -85.4631 49° Northeast 254 292 10,000  Level Atlanta Center
12:22PM 32.9058 -85.3997 48° Northeast 254 292 10,000  Level Atlanta Center
12:24PM 33.0167 -85.2500 49° Northeast 252 290 10,000 -60 Level Atlanta TRACON
12:25PM 33.0667 -85.2000 40° Northeast 245 282 9,900 -780 Descending Atlanta TRACON
12:27PM 33.1500 -85.1833 10° North 234 269 8,400 -1,320 Descending Atlanta TRACON
12:28PM 33.2167 -85.1500 23° Northeast 244 281 7,200 -780 Descending Atlanta TRACON
12:28PM 33.2667 -85.1333 16° North 226 260 7,000 -240 Descending Atlanta TRACON
12:29PM 33.3167 -85.1333 360° North 215 247 6,800 -600 Descending Atlanta TRACON
12:30PM 33.3833 -85.1333 360° North 228 262 5,800 -1,140 Descending Atlanta TRACON
12:31PM 33.4500 -85.1333 360° North 230 265 4,600 -960 Descending Atlanta TRACON
12:32PM 33.5167 -85.1333 360° North 211 243 3,900 -360 Descending Atlanta TRACON
12:33PM 33.5500 -85.1333 360° North 170 196 3,900  Level Atlanta TRACON
12:34PM 33.6000 -85.1333 360° North 176 203 3,900  Level Atlanta TRACON
12:35PM 33.6500 -85.1333 360° North 171 197 3,900  Level Atlanta TRACON
12:36PM 33.6833 -85.1000 40° Northeast 163 188 3,900  Level Atlanta TRACON
12:37PM 33.7167 -85.0667 40° Northeast 173 199 3,900 -60 Level Atlanta TRACON
12:38PM 33.7500 -85.0333 40° Northeast 159 183 3,800 -480 Descending Atlanta TRACON
12:39PM 33.7833 -85.0000 40° Northeast 155 178 3,000 -480 Descending Atlanta TRACON
12:40PM 33.8000 -84.9667 59° Northeast 134 154 2,900 -60 Descending Atlanta TRACON
12:41PM 33.8333 -84.9333 40° Northeast 134 154 2,900  Level Atlanta TRACON
12:42PM 33.8667 -84.9000 40° Northeast 138 159 2,900  Level Atlanta TRACON
12:43PM 33.9000 -84.8667 40° Northeast 139 160 2,900  Level Atlanta TRACON
12:44PM 33.9167 -84.8333 59° Northeast 138 159 2,900  Level Atlanta TRACON
12:45PM 33.9500 -84.8333 360° North 142 163 2,900  Level Atlanta TRACON
12:46PM 34.0000 -84.8333 360° North 149 171 2,900 -120 Level Atlanta TRACON
12:47PM 34.0000 -84.7833 90° East 129 148 2,700 -120 Descending Atlanta TRACON
12:48PM 34.0167 -84.7500 59° Northeast 121 139 2,700  Level Atlanta TRACON
12:49PM 34.0167 -84.7167 90° East 109 125 2,700 -180 Level Atlanta TRACON
12:50PM 34.0167 -84.6833 90° East 114 131 2,400 -300 Descending Atlanta TRACON
12:53PM 34.0132 -84.5971 68° East  Level Estimated